createdAt,value
2023-05-12T00:03:23.992Z,100.00
2023-05-12T00:08:26.819Z,100.00
2023-05-12T00:13:31.197Z,100.00
2023-05-12T00:18:33.969Z,100.00
2023-05-12T00:23:36.803Z,100.00
2023-05-12T00:28:40.924Z,100.00
2023-05-12T00:33:43.712Z,100.00
2023-05-12T00:38:46.400Z,100.00
2023-05-12T00:43:50.510Z,100.00
2023-05-12T00:48:53.774Z,100.00
2023-05-12T00:53:57.350Z,100.00
2023-05-12T00:59:01.475Z,100.00
2023-05-12T01:04:05.064Z,100.00
2023-05-12T01:09:09.190Z,100.00
2023-05-12T01:14:13.829Z,100.00
2023-05-12T01:19:34.657Z,100.00
2023-05-12T01:24:43.720Z,100.00
2023-05-12T01:29:49.115Z,100.00
2023-05-12T01:34:53.798Z,100.00
2023-05-12T01:39:57.377Z,100.00
2023-05-12T01:45:01.853Z,100.00
2023-05-12T01:50:06.903Z,100.00
2023-05-12T01:55:10.240Z,100.00
2023-05-12T02:00:22.534Z,100.00
2023-05-12T02:05:28.618Z,100.00
2023-05-12T02:10:31.946Z,100.00
2023-05-12T02:15:36.272Z,100.00
2023-05-12T02:20:39.244Z,100.00
2023-05-12T02:25:42.409Z,100.00
2023-05-12T02:30:52.910Z,100.00
2023-05-12T02:35:56.225Z,100.00
2023-05-12T02:40:59.636Z,100.00
2023-05-12T02:46:04.559Z,100.00
2023-05-12T02:51:08.050Z,100.00
2023-05-12T02:56:10.973Z,100.00
2023-05-12T03:01:15.191Z,100.00
2023-05-12T03:06:18.195Z,100.00
2023-05-12T03:11:21.407Z,100.00
2023-05-12T03:16:25.564Z,100.00
2023-05-12T03:21:29.038Z,100.00
2023-05-12T03:26:31.901Z,100.00
2023-05-12T03:31:36.439Z,100.00
2023-05-12T03:36:40.959Z,100.00
2023-05-12T03:41:43.819Z,100.00
2023-05-12T03:46:48.123Z,100.00
2023-05-12T03:51:51.022Z,100.00
2023-05-12T03:56:55.052Z,100.00
2023-05-12T04:02:00.070Z,100.00
2023-05-12T04:07:03.899Z,100.00
2023-05-12T04:25:07.157Z,100.00
2023-05-12T04:30:11.586Z,100.00
2023-05-12T04:35:19.237Z,100.00
2023-05-12T04:40:23.772Z,100.00
2023-05-12T04:45:26.826Z,100.00
2023-05-12T04:50:31.108Z,100.00
2023-05-12T04:55:35.167Z,100.00
2023-05-12T05:00:38.152Z,100.00
2023-05-12T05:05:42.521Z,100.00
2023-05-12T05:10:48.021Z,100.00
2023-05-12T05:15:52.149Z,100.00
2023-05-12T05:20:58.868Z,100.00
2023-05-12T05:26:03.463Z,100.00
2023-05-12T05:31:07.410Z,100.00
2023-05-12T05:36:14.710Z,100.00
2023-05-12T05:41:19.587Z,100.00
2023-05-12T05:46:22.469Z,100.00
2023-05-12T05:51:27.317Z,100.00
2023-05-12T05:56:32.833Z,100.00
2023-05-12T06:01:35.742Z,100.00
2023-05-12T06:06:41.387Z,100.00
2023-05-12T06:11:44.969Z,100.00
2023-05-12T06:16:47.803Z,100.00
2023-05-12T06:21:53.230Z,100.00
2023-05-12T06:26:57.213Z,100.00
2023-05-12T06:32:03.857Z,100.00
2023-05-12T06:37:08.747Z,100.00
2023-05-12T06:42:12.249Z,100.00
2023-05-12T06:47:18.667Z,100.00
2023-05-12T06:52:24.246Z,100.00
2023-05-12T06:57:26.979Z,100.00
2023-05-12T07:02:30.359Z,100.00
2023-05-12T07:07:35.567Z,100.00
2023-05-12T07:12:41.334Z,100.00
2023-05-12T07:17:44.155Z,100.00
2023-05-12T07:22:49.213Z,100.00
2023-05-12T07:27:52.320Z,100.00
2023-05-12T07:32:55.903Z,100.00
2023-05-12T07:38:02.858Z,100.00
2023-05-12T07:43:05.816Z,100.00
2023-05-12T07:48:09.528Z,100.00
2023-05-12T07:53:15.353Z,100.00
2023-05-12T07:58:18.079Z,100.00
2023-05-12T08:03:21.146Z,100.00
2023-05-12T08:08:28.412Z,100.00
2023-05-12T08:13:31.212Z,100.00
2023-05-12T08:18:34.382Z,100.00
2023-05-12T08:23:41.122Z,100.00
2023-05-12T08:28:43.936Z,100.00
2023-05-12T08:33:51.758Z,100.00
2023-05-12T08:38:58.348Z,100.00
2023-05-12T08:44:01.392Z,100.00
2023-05-12T08:49:05.593Z,100.00
2023-05-12T08:54:10.981Z,100.00
2023-05-12T08:59:15.372Z,100.00
2023-05-12T09:04:18.204Z,100.00
2023-05-12T09:09:23.181Z,100.00
2023-05-12T09:14:30.516Z,100.00
2023-05-12T09:19:35.064Z,100.00
2023-05-12T09:24:40.617Z,100.00
2023-05-12T09:29:58.534Z,100.00
2023-05-12T09:35:07.959Z,100.00
2023-05-12T09:40:15.952Z,100.00
2023-05-12T09:45:22.838Z,100.00
2023-05-12T09:50:32.505Z,100.00
2023-05-12T09:55:44.029Z,100.00
2023-05-12T10:05:57.441Z,100.00
2023-05-12T10:11:03.484Z,100.00
2023-05-12T10:16:09.295Z,100.00
2023-05-12T10:21:14.031Z,100.00
2023-05-12T10:26:18.881Z,96.99
2023-05-12T10:31:24.392Z,97.80
2023-05-12T10:36:27.624Z,94.57
2023-05-12T10:41:33.313Z,89.11
2023-05-12T10:46:36.431Z,88.69
2023-05-12T10:51:52.031Z,95.35
2023-05-12T10:56:59.943Z,94.88
2023-05-12T11:02:09.000Z,86.23
2023-05-12T11:07:16.714Z,80.52
2023-05-12T11:12:21.369Z,72.96
2023-05-12T11:17:25.558Z,77.76
2023-05-12T11:22:33.724Z,81.69
2023-05-12T11:27:39.284Z,80.47
2023-05-12T11:32:42.470Z,84.86
2023-05-12T11:37:47.926Z,83.27
2023-05-12T11:42:55.712Z,75.88
2023-05-12T11:48:09.473Z,73.47
2023-05-12T11:53:14.764Z,74.48
2023-05-12T11:58:23.785Z,77.38
2023-05-12T12:03:26.966Z,79.71
2023-05-12T12:08:30.490Z,81.22
2023-05-12T12:13:36.682Z,85.76
2023-05-12T12:18:40.999Z,81.88
2023-05-12T12:23:50.816Z,79.62
2023-05-12T12:28:57.538Z,81.33
2023-05-12T12:34:01.530Z,85.06
2023-05-12T12:39:04.711Z,86.57
2023-05-12T12:44:09.600Z,92.78
2023-05-12T12:49:12.355Z,95.74
2023-05-12T12:54:15.669Z,100.00
2023-05-12T12:59:19.847Z,100.00
2023-05-12T13:04:23.575Z,100.00
2023-05-12T13:09:28.034Z,100.00
2023-05-12T13:14:32.531Z,100.00
2023-05-12T13:19:38.076Z,100.00
2023-05-12T13:24:41.551Z,99.48
2023-05-12T13:29:47.207Z,99.00
2023-05-12T13:34:52.445Z,96.91
2023-05-12T13:39:55.615Z,95.11
2023-05-12T13:45:00.013Z,87.65
2023-05-12T13:50:02.927Z,82.76
2023-05-12T13:55:06.404Z,84.92
2023-05-12T14:00:14.590Z,81.76
2023-05-12T14:05:23.461Z,80.43
2023-05-12T14:10:26.509Z,81.89
2023-05-12T14:15:47.330Z,83.66
2023-05-12T14:20:55.270Z,78.81
2023-05-12T14:25:58.689Z,78.71
2023-05-12T14:31:03.547Z,77.67
2023-05-12T14:36:10.775Z,75.20
2023-05-12T14:41:13.794Z,74.49
2023-05-12T14:46:18.701Z,73.13
2023-05-12T14:51:22.510Z,71.75
2023-05-12T14:56:25.782Z,70.49
2023-05-12T15:01:29.916Z,68.47
2023-05-12T15:06:33.974Z,71.30
2023-05-12T15:11:36.919Z,72.32
2023-05-12T15:16:44.254Z,71.81
2023-05-12T15:21:47.731Z,75.44
2023-05-12T15:26:53.105Z,77.90
2023-05-12T15:31:57.340Z,81.15
2023-05-12T15:37:00.723Z,83.06
2023-05-12T15:42:05.576Z,90.41
2023-05-12T15:47:11.627Z,100.00
2023-05-12T15:52:15.228Z,100.00
2023-05-12T15:57:18.685Z,100.00
2023-05-12T16:02:22.804Z,100.00
2023-05-12T16:07:29.380Z,100.00
2023-05-12T16:12:32.708Z,100.00
2023-05-12T16:17:37.738Z,100.00
2023-05-12T16:22:42.798Z,100.00
2023-05-12T16:27:46.193Z,100.00
2023-05-12T16:32:51.778Z,100.00
2023-05-12T16:37:54.695Z,100.00
2023-05-12T16:42:57.776Z,100.00
2023-05-12T16:48:02.181Z,100.00
2023-05-12T16:53:05.722Z,100.00
2023-05-12T16:58:10.967Z,100.00
2023-05-12T17:03:15.864Z,100.00
2023-05-12T17:08:20.058Z,100.00
2023-05-12T17:13:23.792Z,100.00
2023-05-12T17:18:27.901Z,100.00
2023-05-12T17:23:31.750Z,100.00
2023-05-12T17:28:34.528Z,100.00
2023-05-12T17:33:40.380Z,100.00
2023-05-12T17:38:43.832Z,100.00
2023-05-12T17:43:47.674Z,100.00
2023-05-12T17:48:51.852Z,100.00
2023-05-12T17:53:54.593Z,100.00
2023-05-12T17:58:59.350Z,100.00
2023-05-12T18:04:03.680Z,100.00
2023-05-12T18:09:08.621Z,100.00
2023-05-12T18:14:11.527Z,100.00
2023-05-12T18:19:16.335Z,100.00
2023-05-12T18:24:19.451Z,100.00
2023-05-12T18:29:22.804Z,100.00
2023-05-12T18:34:27.423Z,100.00
2023-05-12T18:39:31.172Z,100.00
2023-05-12T18:44:36.262Z,100.00
2023-05-12T18:49:40.397Z,100.00
2023-05-12T18:54:46.867Z,100.00
2023-05-12T18:59:51.740Z,100.00
2023-05-12T19:04:56.232Z,100.00
2023-05-12T19:09:59.836Z,100.00
2023-05-12T19:15:02.644Z,100.00
2023-05-12T19:20:09.913Z,100.00
2023-05-12T19:25:17.823Z,100.00
2023-05-12T19:30:21.284Z,100.00
2023-05-12T19:35:25.913Z,100.00
2023-05-12T19:40:30.612Z,100.00
2023-05-12T19:45:34.796Z,100.00
2023-05-12T19:50:40.077Z,100.00
2023-05-12T19:55:43.505Z,100.00
2023-05-12T20:00:46.215Z,100.00
2023-05-12T20:05:50.886Z,100.00
2023-05-12T20:10:53.625Z,100.00
2023-05-12T20:15:56.441Z,100.00
2023-05-12T20:21:01.148Z,100.00
2023-05-12T20:26:04.910Z,100.00
2023-05-12T20:31:09.699Z,100.00
2023-05-12T20:36:13.794Z,100.00
2023-05-12T20:41:17.035Z,100.00
2023-05-12T20:46:20.082Z,100.00
2023-05-12T20:51:24.572Z,100.00
2023-05-12T20:56:27.593Z,100.00
2023-05-12T21:01:31.034Z,100.00
2023-05-12T21:06:36.562Z,100.00
2023-05-12T21:11:39.864Z,100.00
2023-05-12T21:16:42.653Z,100.00
2023-05-12T21:21:46.864Z,100.00
2023-05-12T21:26:49.576Z,100.00
2023-05-12T21:31:52.377Z,100.00
2023-05-12T21:36:56.801Z,100.00
2023-05-12T21:42:01.625Z,100.00
2023-05-12T21:47:04.581Z,100.00
2023-05-12T21:52:08.980Z,100.00
2023-05-12T21:57:12.603Z,100.00
2023-05-12T22:02:15.434Z,100.00
2023-05-12T22:07:19.777Z,100.00
2023-05-12T22:12:22.692Z,100.00
2023-05-12T22:17:25.672Z,100.00
2023-05-12T22:22:30.022Z,100.00
2023-05-12T22:27:32.795Z,100.00
2023-05-12T22:32:35.587Z,100.00
2023-05-12T22:37:40.481Z,100.00
2023-05-12T22:42:43.328Z,100.00
2023-05-12T22:47:46.106Z,100.00
2023-05-12T22:52:50.310Z,100.00
2023-05-12T22:57:53.429Z,100.00
2023-05-12T23:02:56.295Z,100.00
2023-05-12T23:08:00.570Z,100.00
2023-05-12T23:13:03.325Z,100.00
2023-05-12T23:18:06.135Z,100.00
2023-05-12T23:23:11.070Z,100.00
2023-05-12T23:28:13.785Z,100.00
2023-05-12T23:33:16.615Z,100.00
2023-05-12T23:38:20.877Z,100.00
2023-05-12T23:43:23.572Z,100.00
2023-05-12T23:48:26.294Z,100.00
2023-05-12T23:53:30.479Z,100.00
2023-05-12T23:58:33.299Z,100.00
